Time;durP1;ratioP1;P1;durP2;ratioP2;P2;SDS_P1;SDS_P2;PMS_P1;PMS_P2;Temp;Humidity;BMP_temperature;BMP_pressure;BME280_temperature;BME280_humidity;BME280_pressure;Samples;Min_cycle;Max_cycle;Signal;HPM_P1;HPM_P2
2021/12/25 00:00:13;;;;;;;11.15;10.02;;;;;;;6.13;92.86;100329.06;5072527;28;20032;-69
2021/12/25 00:02:39;;;;;;;9.85;8.85;;;;;;;6.09;91.93;100322.47;5070526;28;20063;-69
2021/12/25 00:05:06;;;;;;;11.60;9.15;;;;;;;6.09;92.21;100323.28;5072835;28;20501;-69
2021/12/25 00:07:32;;;;;;;10.48;9.02;;;;;;;6.13;92.25;100321.84;5072108;28;21974;-70
2021/12/25 00:09:58;;;;;;;10.25;8.93;;;;;;;6.08;92.11;100318.94;5072349;28;20033;-69
2021/12/25 00:12:24;;;;;;;9.75;8.70;;;;;;;6.12;91.68;100320.19;5057684;28;20032;-69
2021/12/25 00:14:49;;;;;;;11.00;9.35;;;;;;;6.07;91.28;100328.06;5052384;28;20036;-68
2021/12/25 00:17:14;;;;;;;9.73;8.73;;;;;;;6.11;91.66;100329.28;5053006;28;20033;-70
2021/12/25 00:19:39;;;;;;;9.77;8.68;;;;;;;6.07;92.47;100324.53;5052171;28;20108;-69
2021/12/25 00:22:05;;;;;;;10.15;9.15;;;;;;;6.08;91.55;100328.88;5052242;28;20476;-69
2021/12/25 00:24:30;;;;;;;10.10;9.00;;;;;;;6.11;92.04;100321.22;5051864;28;20074;-69
2021/12/25 00:27:03;;;;;;;9.90;8.77;;;;;;;6.06;91.54;100321.03;5052075;28;20032;-69
2021/12/25 00:32:13;;;;;;;12.70;9.75;;;;;;;6.02;91.67;100311.72;5052409;28;20548;-69
2021/12/25 00:34:38;;;;;;;11.25;9.70;;;;;;;6.00;90.86;100309.25;5052267;28;20030;-70
2021/12/25 00:37:05;;;;;;;10.32;9.20;;;;;;;5.98;92.22;100313.19;5052421;28;20029;-70
2021/12/25 00:39:31;;;;;;;10.68;9.13;;;;;;;5.96;90.81;100315.22;5051829;28;20593;-69
2021/12/25 00:41:57;;;;;;;11.13;9.50;;;;;;;5.89;90.67;100317.06;5052363;28;20029;-70
2021/12/25 00:44:24;;;;;;;11.50;9.40;;;;;;;5.90;91.00;100311.47;5062868;28;20048;-69
2021/12/25 00:46:49;;;;;;;11.35;9.57;;;;;;;5.88;91.47;100332.34;5072066;28;20398;-70
2021/12/25 00:49:14;;;;;;;12.68;9.90;;;;;;;5.91;91.23;100325.75;5075309;28;20036;-69
2021/12/25 00:51:40;;;;;;;15.43;10.35;;;;;;;5.88;91.38;100328.84;5077860;28;20036;-69
2021/12/25 00:54:05;;;;;;;12.63;10.10;;;;;;;5.90;90.97;100327.59;5072169;28;20469;-69
2021/12/25 00:56:30;;;;;;;13.23;10.45;;;;;;;5.89;91.65;100327.81;5071977;28;20032;-69
2021/12/25 00:58:56;;;;;;;12.30;10.13;;;;;;;5.91;91.07;100325.75;5073244;28;20115;-69
2021/12/25 01:01:21;;;;;;;15.68;10.57;;;;;;;5.89;92.23;100325.97;5072336;28;20095;-70
2021/12/25 01:03:47;;;;;;;13.98;10.73;;;;;;;5.92;91.39;100328.22;5072029;28;20029;-69
2021/12/25 01:06:13;;;;;;;15.68;10.68;;;;;;;5.90;91.68;100321.41;5072081;28;20059;-69
2021/12/25 01:08:39;;;;;;;14.20;11.00;;;;;;;5.90;90.89;100322.22;5071835;28;20076;-69
2021/12/25 01:11:04;;;;;;;14.13;10.73;;;;;;;5.84;91.27;100329.28;5072144;28;20029;-69
2021/12/25 01:13:35;;;;;;;16.52;11.20;;;;;;;5.89;91.56;100325.13;5071899;28;20122;-69
2021/12/25 01:16:07;;;;;;;13.82;11.25;;;;;;;5.84;91.48;100329.28;5072084;28;20028;-70
2021/12/25 01:19:04;;;;;;;13.50;10.93;;;;;;;5.84;91.12;100318.53;5057587;28;20037;-69
2021/12/25 01:21:51;;;;;;;14.38;11.38;;;;;;;5.79;91.21;100321.00;5058815;28;20052;-69
2021/12/25 01:37:45;;;;;;;15.82;12.35;;;;;;;5.59;92.08;100317.50;5075244;28;20040;-69
2021/12/25 01:48:25;;;;;;;17.17;14.48;;;;;;;5.62;91.82;100317.06;5074963;28;20039;-69
2021/12/25 01:50:52;;;;;;;19.42;15.13;;;;;;;5.57;92.38;100317.69;5075228;28;20043;-70
2021/12/25 01:53:17;;;;;;;19.33;15.98;;;;;;;5.58;92.00;100313.97;5075400;28;20052;-68
2021/12/25 01:55:43;;;;;;;23.88;17.95;;;;;;;5.53;91.87;100311.06;5074875;28;20110;-69
2021/12/25 01:58:09;;;;;;;21.67;17.63;;;;;;;5.50;92.40;100306.94;5075154;28;20032;-70
2021/12/25 02:00:39;;;;;;;22.55;17.42;;;;;;;5.52;92.43;100305.91;5072504;28;20379;-68
2021/12/25 02:03:06;;;;;;;20.95;17.30;;;;;;;5.59;91.86;100312.13;5075133;28;20028;-68
2021/12/25 02:05:32;;;;;;;21.05;17.05;;;;;;;5.54;91.74;100312.75;5075227;28;20035;-69
2021/12/25 02:07:57;;;;;;;22.73;18.13;;;;;;;5.54;91.83;100314.56;5075959;28;20442;-69
2021/12/25 02:10:23;;;;;;;20.90;17.23;;;;;;;5.55;91.68;100318.91;5081741;28;20486;-69
2021/12/25 02:12:48;;;;;;;21.48;17.90;;;;;;;5.56;91.87;100309.84;5095082;28;20107;-69
2021/12/25 02:15:18;;;;;;;22.13;17.88;;;;;;;5.55;91.98;100313.56;5094755;28;20034;-69
2021/12/25 02:18:07;;;;;;;23.42;19.67;;;;;;;5.50;91.01;100317.66;5089996;28;20111;-69
2021/12/25 02:20:41;;;;;;;24.98;20.45;;;;;;;5.46;91.69;100311.06;5074613;28;20074;-69
2021/12/25 02:23:21;;;;;;;24.85;20.30;;;;;;;5.52;91.99;100309.41;5074721;28;20037;-68
2021/12/25 02:25:47;;;;;;;26.33;21.30;;;;;;;5.42;90.83;100304.47;5074346;28;20107;-69
2021/12/25 02:28:13;;;;;;;28.25;22.30;;;;;;;5.44;91.17;100306.94;5073997;28;20560;-68
2021/12/25 02:30:40;;;;;;;25.15;20.75;;;;;;;5.42;91.50;100307.16;5074639;28;20040;-70
2021/12/25 02:33:06;;;;;;;25.60;21.15;;;;;;;5.41;91.31;100312.72;5074755;28;20036;-69
2021/12/25 02:35:31;;;;;;;27.30;22.17;;;;;;;5.37;91.61;100301.53;5069309;28;20464;-68
2021/12/25 02:37:57;;;;;;;26.10;20.85;;;;;;;5.39;91.57;100307.56;5054345;28;20044;-69
2021/12/25 02:40:23;;;;;;;25.90;21.05;;;;;;;5.43;91.98;100313.31;5054468;28;20082;-70
2021/12/25 02:42:49;;;;;;;26.13;21.42;;;;;;;5.48;91.72;100314.38;5073847;28;20020;-70
2021/12/25 02:45:19;;;;;;;27.15;21.40;;;;;;;5.45;91.66;100304.06;5073988;28;20025;-69
2021/12/25 02:47:47;;;;;;;24.65;20.40;;;;;;;5.42;91.26;100312.50;5073632;28;20448;-70
2021/12/25 02:50:20;;;;;;;25.75;20.70;;;;;;;5.46;92.03;100311.06;5072779;28;20357;-69
2021/12/25 02:52:46;;;;;;;27.02;20.48;;;;;;;5.47;91.50;100318.09;5074008;28;20044;-70
2021/12/25 02:55:11;;;;;;;22.70;19.08;;;;;;;5.46;91.24;100311.06;5073709;28;20472;-68
2021/12/25 02:57:36;;;;;;;20.75;15.48;;;;;;;5.36;90.67;100309.81;5072339;28;20033;-70
2021/12/25 03:00:08;;;;;;;18.30;15.80;;;;;;;5.20;90.82;100314.53;5073688;28;20032;-71
2021/12/25 03:02:33;;;;;;;19.50;15.57;;;;;;;5.12;91.32;100318.22;5071297;28;20028;-69
2021/12/25 03:04:58;;;;;;;19.27;15.13;;;;;;;5.07;91.07;100315.34;5073852;28;20024;-69
2021/12/25 03:07:24;;;;;;;18.23;14.80;;;;;;;5.09;91.43;100315.13;5072439;28;20024;-69
2021/12/25 03:09:49;;;;;;;20.08;14.88;;;;;;;5.05;91.32;100314.69;5073494;28;20028;-69
2021/12/25 03:12:17;;;;;;;17.83;13.98;;;;;;;5.00;91.12;100327.88;5073620;28;20417;-68
2021/12/25 03:15:04;;;;;;;18.30;13.75;;;;;;;4.92;90.98;100330.72;5073480;28;20029;-70
2021/12/25 03:17:32;;;;;;;17.13;14.13;;;;;;;4.81;90.42;100334.00;5073510;28;20032;-69
2021/12/25 03:19:58;;;;;;;16.67;13.48;;;;;;;4.74;91.09;100334.78;5086635;28;20032;-69
2021/12/25 03:22:24;;;;;;;18.90;14.10;;;;;;;4.66;90.88;100337.63;5092829;28;20475;-70
2021/12/25 03:24:49;;;;;;;18.52;14.18;;;;;;;4.61;91.05;100343.59;5091461;28;20031;-70
2021/12/25 03:27:14;;;;;;;19.30;14.82;;;;;;;4.56;91.26;100353.22;5093109;28;20036;-69
2021/12/25 03:29:42;;;;;;;18.75;14.50;;;;;;;4.58;91.39;100351.19;5088806;28;20040;-69
2021/12/25 03:32:08;;;;;;;20.17;14.85;;;;;;;4.52;91.24;100358.19;5081654;28;20081;-70
2021/12/25 03:34:34;;;;;;;19.83;15.02;;;;;;;4.52;91.22;100352.00;5092961;28;20024;-70
2021/12/25 03:37:00;;;;;;;20.75;15.25;;;;;;;4.52;90.55;100358.19;5091434;28;20032;-69
2021/12/25 03:39:25;;;;;;;19.73;14.68;;;;;;;4.51;91.02;100361.03;5090872;28;20031;-68
2021/12/25 03:41:50;;;;;;;20.67;15.00;;;;;;;4.42;90.44;100355.00;5072520;28;20353;-69
2021/12/25 03:44:16;;;;;;;20.20;14.85;;;;;;;4.40;90.20;100355.22;5071779;28;20071;-69
2021/12/25 03:46:42;;;;;;;19.02;13.85;;;;;;;4.35;90.02;100354.97;5072744;28;20074;-70
2021/12/25 03:49:14;;;;;;;19.10;14.18;;;;;;;4.30;89.81;100353.91;5072954;28;20028;-69
2021/12/25 03:59:58;;;;;;;18.40;14.02;;;;;;;3.97;90.16;100357.16;5072427;28;20108;-70
2021/12/25 04:02:32;;;;;;;17.35;13.75;;;;;;;3.95;91.04;100362.72;5070529;28;20119;-68
2021/12/25 04:05:00;;;;;;;17.70;13.32;;;;;;;3.96;90.94;100364.38;5072519;28;20421;-70
2021/12/25 04:10:09;;;;;;;18.83;14.25;;;;;;;3.99;91.07;100349.78;5072669;28;20491;-70
2021/12/25 04:12:34;;;;;;;18.08;13.82;;;;;;;4.03;90.82;100375.97;5072600;28;20028;-69
2021/12/25 04:15:00;;;;;;;17.65;14.18;;;;;;;4.02;90.24;100371.63;5072645;28;20024;-70
2021/12/25 04:17:25;;;;;;;18.48;14.27;;;;;;;3.91;90.21;100380.22;5072380;28;20091;-69
2021/12/25 04:19:50;;;;;;;16.42;13.57;;;;;;;3.83;90.10;100383.81;5072708;28;20478;-69
2021/12/25 04:22:22;;;;;;;17.83;13.57;;;;;;;3.80;90.33;100380.72;5072613;28;20040;-70
2021/12/25 04:24:49;;;;;;;16.20;13.60;;;;;;;3.70;89.80;100386.41;5072387;28;20024;-69
2021/12/25 04:27:16;;;;;;;15.82;13.35;;;;;;;3.59;89.82;100382.34;5072586;28;20029;-70
2021/12/25 04:32:52;;;;;;;16.42;13.88;;;;;;;3.52;90.39;100394.84;5072517;28;20391;-70
2021/12/25 05:02:08;;;;;;;19.75;17.02;;;;;;;3.09;88.87;100430.34;5069665;28;20447;-69
2021/12/25 05:04:47;;;;;;;19.13;16.48;;;;;;;3.01;88.31;100435.81;5071183;28;20464;-70
2021/12/25 05:07:13;;;;;;;20.38;17.30;;;;;;;3.03;88.76;100443.63;5052311;28;20031;-69
2021/12/25 05:09:39;;;;;;;20.73;16.70;;;;;;;2.93;88.35;100438.56;5051884;28;20029;-70
2021/12/25 05:12:05;;;;;;;19.55;15.82;;;;;;;2.85;87.75;100436.81;5060893;28;20533;-69
2021/12/25 05:14:30;;;;;;;20.33;16.38;;;;;;;2.92;89.00;100436.91;5067052;28;20037;-69
2021/12/25 05:16:55;;;;;;;19.95;16.65;;;;;;;2.80;88.21;100437.38;5054421;28;20087;-68
2021/12/25 05:19:20;;;;;;;19.75;16.73;;;;;;;2.74;88.67;100445.31;5074580;28;20044;-69
2021/12/25 05:21:46;;;;;;;20.02;17.20;;;;;;;2.66;88.94;100444.38;5074301;28;20036;-69
2021/12/25 05:24:11;;;;;;;20.67;17.00;;;;;;;2.60;88.09;100430.91;5076066;28;20074;-68
2021/12/25 05:26:36;;;;;;;20.52;17.15;;;;;;;2.57;88.59;100434.78;5075521;28;20115;-69
2021/12/25 05:29:02;;;;;;;27.80;19.83;;;;;;;2.57;89.20;100445.47;5075523;28;20052;-69
2021/12/25 05:31:58;;;;;;;20.08;16.73;;;;;;;2.63;88.94;100450.06;5074128;28;20035;-69
2021/12/25 05:34:23;;;;;;;21.40;17.38;;;;;;;2.54;88.39;100443.16;5055614;28;20025;-67
2021/12/25 05:36:49;;;;;;;20.17;16.85;;;;;;;2.55;88.19;100454.66;5071968;28;20039;-69
2021/12/25 05:39:15;;;;;;;20.48;17.05;;;;;;;2.50;88.47;100460.56;5075534;28;20473;-68
2021/12/25 05:41:41;;;;;;;20.13;16.77;;;;;;;2.50;88.53;100455.22;5073918;28;20029;-68
2021/12/25 05:44:55;;;;;;;20.02;16.08;;;;;;;2.55;88.69;100452.00;5073724;28;20040;-71
2021/12/25 05:47:20;;;;;;;20.90;16.70;;;;;;;2.37;87.71;100460.34;5055181;28;20119;-68
2021/12/25 05:49:45;;;;;;;19.77;16.55;;;;;;;2.36;87.94;100456.03;5085908;28;20126;-70
2021/12/25 05:52:11;;;;;;;19.48;15.93;;;;;;;2.34;87.91;100466.03;5071665;28;20068;-70
2021/12/25 05:54:37;;;;;;;19.38;16.33;;;;;;;2.30;88.13;100469.06;5063750;28;20397;-70
2021/12/25 05:57:02;;;;;;;20.60;16.80;;;;;;;2.17;88.28;100460.84;5073387;28;20041;-70
2021/12/25 05:59:27;;;;;;;20.73;16.70;;;;;;;2.20;88.63;100465.81;5070778;28;20033;-70
2021/12/25 06:01:53;;;;;;;21.20;16.88;;;;;;;2.20;88.54;100475.66;5052430;28;20113;-71
2021/12/25 06:04:18;;;;;;;20.05;16.60;;;;;;;2.22;88.39;100476.31;5054719;28;20029;-72
2021/12/25 06:06:43;;;;;;;20.58;16.13;;;;;;;2.17;88.28;100479.53;5063338;28;20021;-73
2021/12/25 06:09:09;;;;;;;20.33;16.85;;;;;;;2.19;88.77;100482.00;5073618;28;20029;-68
2021/12/25 06:11:36;;;;;;;20.95;16.27;;;;;;;2.10;88.19;100483.94;5067325;28;20451;-68
2021/12/25 06:14:16;;;;;;;20.50;17.10;;;;;;;1.99;88.18;100487.00;5064886;28;20032;-71
2021/12/25 06:16:46;;;;;;;20.83;16.65;;;;;;;2.03;88.89;100485.66;5054275;28;20056;-70
2021/12/25 06:19:17;;;;;;;21.33;17.33;;;;;;;2.03;89.35;100491.81;5061972;28;20035;-71
2021/12/25 06:21:49;;;;;;;18.83;15.82;;;;;;;1.86;88.58;100491.09;5073856;28;20052;-70
2021/12/25 06:24:20;;;;;;;20.45;16.85;;;;;;;1.71;88.63;100488.34;5073024;28;20050;-72
2021/12/25 06:26:46;;;;;;;19.42;15.80;;;;;;;1.63;89.14;100498.22;5074498;28;20505;-73
2021/12/25 06:29:14;;;;;;;20.33;16.25;;;;;;;1.57;89.62;100503.28;5074339;28;20135;-72
2021/12/25 06:31:39;;;;;;;19.02;15.52;;;;;;;1.56;89.33;100501.59;5074287;28;20028;-72
2021/12/25 06:34:05;;;;;;;19.38;16.23;;;;;;;1.51;89.51;100498.63;5074549;28;20448;-70
2021/12/25 06:36:31;;;;;;;18.85;15.55;;;;;;;1.52;89.78;100504.78;5074537;28;20064;-71
2021/12/25 06:38:56;;;;;;;19.52;16.33;;;;;;;1.49;90.21;100505.97;5074303;28;20529;-72
2021/12/25 06:41:21;;;;;;;19.17;15.60;;;;;;;1.55;90.40;100505.25;5073881;28;20028;-73
2021/12/25 06:43:47;;;;;;;19.90;15.82;;;;;;;1.55;89.49;100499.09;5060893;28;20390;-72
2021/12/25 06:46:12;;;;;;;18.00;14.52;;;;;;;1.56;89.76;100506.94;5054272;28;20078;-70
2021/12/25 06:48:37;;;;;;;17.35;14.43;;;;;;;1.58;89.56;100507.56;5052678;28;20392;-72
2021/12/25 06:51:03;;;;;;;20.58;15.23;;;;;;;1.56;89.07;100514.13;5084027;28;20031;-72
2021/12/25 06:53:28;;;;;;;17.23;14.77;;;;;;;1.55;89.70;100513.25;5073831;28;20161;-71
2021/12/25 06:55:53;;;;;;;17.90;14.80;;;;;;;1.52;89.75;100518.94;5056750;28;20089;-71
2021/12/25 06:58:19;;;;;;;18.02;15.07;;;;;;;1.48;89.18;100514.97;5070452;28;20490;-72
2021/12/25 07:00:44;;;;;;;16.08;13.70;;;;;;;1.56;89.96;100519.44;5071145;28;20082;-70
2021/12/25 07:03:12;;;;;;;18.20;14.38;;;;;;;1.61;89.93;100524.25;5071120;28;20024;-71
2021/12/25 07:05:38;;;;;;;17.58;13.95;;;;;;;1.57;89.23;100524.59;5055499;28;20051;-72
2021/12/25 07:08:03;;;;;;;17.25;13.80;;;;;;;1.57;89.36;100532.59;5068659;28;20735;-70
2021/12/25 07:10:29;;;;;;;18.42;14.45;;;;;;;1.62;89.17;100536.59;5085389;28;20073;-70
2021/12/25 07:12:54;;;;;;;16.70;14.15;;;;;;;1.70;89.46;100537.38;5074266;28;20063;-68
2021/12/25 07:15:19;;;;;;;16.52;13.93;;;;;;;1.64;89.50;100532.72;5064646;28;20025;-69
2021/12/25 07:17:45;;;;;;;18.52;14.38;;;;;;;1.69;89.31;100533.06;5060732;28;20430;-69
2021/12/25 07:20:11;;;;;;;16.98;14.20;;;;;;;1.70;89.85;100536.53;5075749;28;20544;-68
2021/12/25 07:22:36;;;;;;;19.17;14.65;;;;;;;1.67;88.93;100536.88;5063141;28;20059;-69
2021/12/25 07:25:03;;;;;;;18.25;14.93;;;;;;;1.66;89.07;100543.22;5073143;28;20500;-68
2021/12/25 07:27:29;;;;;;;19.35;14.50;;;;;;;1.54;88.84;100546.28;5059719;28;20037;-68
2021/12/25 07:29:54;;;;;;;18.85;13.75;;;;;;;1.45;88.98;100547.34;5052929;28;20047;-68
2021/12/25 07:32:19;;;;;;;16.63;13.10;;;;;;;1.44;89.08;100560.84;5053108;28;20525;-69
2021/12/25 07:34:46;;;;;;;19.88;13.80;;;;;;;1.38;89.14;100551.69;5052822;28;20053;-68
2021/12/25 07:37:13;;;;;;;14.95;12.38;;;;;;;1.31;88.99;100556.03;5053327;28;20028;-68
2021/12/25 07:39:39;;;;;;;18.08;12.45;;;;;;;1.29;88.92;100563.38;5066133;28;20123;-69
2021/12/25 07:42:04;;;;;;;16.50;11.63;;;;;;;1.33;89.54;100559.34;5057067;28;20170;-69
2021/12/25 07:44:29;;;;;;;17.33;11.95;;;;;;;1.31;89.25;100556.84;5053451;28;20077;-70
2021/12/25 07:46:55;;;;;;;16.55;12.13;;;;;;;1.39;90.07;100564.84;5055380;28;20036;-68
2021/12/25 07:49:21;;;;;;;16.48;11.77;;;;;;;1.46;89.81;100562.31;5067717;28;20040;-70
2021/12/25 07:51:47;;;;;;;15.77;11.60;;;;;;;1.53;89.20;100560.63;5057060;28;20064;-69
2021/12/25 07:54:13;;;;;;;14.40;11.00;;;;;;;1.55;88.89;100566.59;5064178;28;20124;-70
2021/12/25 07:56:38;;;;;;;17.63;12.18;;;;;;;1.51;88.66;100567.13;5056338;28;20459;-69
2021/12/25 07:59:04;;;;;;;14.93;11.48;;;;;;;1.41;88.00;100567.34;5072383;28;20474;-69
2021/12/25 08:01:32;;;;;;;14.88;11.13;;;;;;;1.43;88.58;100570.66;5070551;28;20043;-69
2021/12/25 08:03:57;;;;;;;16.63;10.52;;;;;;;1.34;87.98;100571.69;5071671;28;20039;-70
2021/12/25 08:06:23;;;;;;;14.27;10.32;;;;;;;1.38;87.83;100581.00;5057346;28;20036;-68
2021/12/25 08:08:50;;;;;;;13.23;9.15;;;;;;;1.22;86.73;100577.41;5060677;28;20025;-68
2021/12/25 08:11:17;;;;;;;11.43;9.43;;;;;;;1.07;87.41;100587.06;5058821;28;20365;-69
2021/12/25 08:13:42;;;;;;;12.45;9.43;;;;;;;1.02;88.57;100589.41;5071922;28;20029;-68
2021/12/25 08:16:07;;;;;;;12.57;9.82;;;;;;;1.04;88.86;100588.25;5065452;28;20040;-68
2021/12/25 08:18:33;;;;;;;13.85;9.15;;;;;;;0.98;88.18;100588.94;5070018;28;20059;-69
2021/12/25 08:20:59;;;;;;;13.93;9.23;;;;;;;0.91;88.16;100597.75;5072058;28;20032;-68
2021/12/25 08:23:25;;;;;;;12.07;9.75;;;;;;;0.86;88.08;100600.91;5072519;28;20127;-70
2021/12/25 08:25:50;;;;;;;18.20;11.63;;;;;;;0.90;88.55;100607.56;5085966;28;20532;-68
2021/12/25 08:28:28;;;;;;;11.98;9.40;;;;;;;0.90;88.00;100607.56;5078518;28;20048;-69
2021/12/25 08:30:55;;;;;;;12.75;9.50;;;;;;;0.83;87.54;100598.56;5061402;28;20105;-69
2021/12/25 08:33:20;;;;;;;12.98;9.98;;;;;;;0.82;87.64;100608.41;5058106;28;20480;-68
2021/12/25 08:35:46;;;;;;;11.73;9.65;;;;;;;0.78;87.25;100604.41;5053488;28;20472;-69
2021/12/25 08:38:11;;;;;;;12.48;9.30;;;;;;;0.80;87.89;100613.09;5051848;28;20036;-69
2021/12/25 08:40:38;;;;;;;11.15;9.45;;;;;;;0.77;87.44;100618.75;5052274;28;20376;-74
2021/12/25 08:43:05;;;;;;;14.07;9.88;;;;;;;0.75;88.20;100617.25;5052238;28;20033;-74
2021/12/25 08:48:09;;;;;;;10.15;8.52;;;;;;;0.55;87.51;100624.72;5065120;28;20469;-74
2021/12/25 08:50:34;;;;;;;12.55;9.45;;;;;;;0.53;88.14;100628.38;5075238;28;20024;-75
2021/12/25 08:53:00;;;;;;;11.50;9.07;;;;;;;0.55;87.47;100641.53;5076397;28;20117;-74
2021/12/25 08:55:25;;;;;;;11.45;9.25;;;;;;;0.53;87.43;100627.56;5076353;28;20032;-73
2021/12/25 08:57:51;;;;;;;11.98;8.95;;;;;;;0.55;88.40;100638.88;5076325;28;20119;-74
2021/12/25 09:00:17;;;;;;;12.77;9.75;;;;;;;0.51;87.04;100630.38;5076233;28;20181;-73
2021/12/25 09:02:42;;;;;;;11.32;9.13;;;;;;;0.62;88.27;100647.00;5072537;28;20025;-74
2021/12/25 09:05:08;;;;;;;10.27;8.77;;;;;;;0.65;88.04;100639.53;5075437;28;20028;-75
2021/12/25 09:07:33;;;;;;;11.40;8.70;;;;;;;0.71;87.09;100640.72;5068544;28;20032;-74
2021/12/25 09:09:58;;;;;;;12.07;8.82;;;;;;;0.71;86.70;100640.72;5075339;28;20024;-74
2021/12/25 09:12:25;;;;;;;13.35;8.75;;;;;;;0.67;86.71;100645.53;5075687;28;20115;-73
2021/12/25 09:14:50;;;;;;;10.80;8.85;;;;;;;0.69;86.76;100648.88;5075428;28;20029;-73
2021/12/25 09:17:16;;;;;;;10.52;8.75;;;;;;;0.71;86.63;100643.38;5055787;28;20033;-75
2021/12/25 09:19:42;;;;;;;12.10;8.50;;;;;;;0.70;87.02;100645.19;5055861;28;20040;-74
2021/12/25 09:22:09;;;;;;;11.13;9.18;;;;;;;0.64;86.00;100648.53;5059281;28;20044;-74
2021/12/25 09:24:35;;;;;;;10.85;8.85;;;;;;;0.65;87.01;100652.88;5055495;28;20084;-73
2021/12/25 09:27:02;;;;;;;10.20;8.48;;;;;;;0.71;86.33;100656.72;5064611;28;20028;-75
2021/12/25 09:29:27;;;;;;;9.52;8.27;;;;;;;0.72;86.29;100653.03;5089429;28;20048;-75
2021/12/25 09:31:53;;;;;;;11.25;8.45;;;;;;;0.78;86.39;100655.03;5075968;28;20363;-76
2021/12/25 09:34:18;;;;;;;9.93;8.77;;;;;;;0.73;86.05;100653.88;5085223;28;20107;-75
2021/12/25 09:36:43;;;;;;;12.57;8.50;;;;;;;0.65;85.57;100644.88;5074130;28;20036;-76
2021/12/25 09:39:08;;;;;;;10.13;8.30;;;;;;;0.71;86.30;100651.38;5078733;28;20071;-76
2021/12/25 09:41:34;;;;;;;11.30;8.52;;;;;;;0.72;86.39;100655.69;5089874;28;20509;-76
2021/12/25 09:44:05;;;;;;;11.00;7.82;;;;;;;0.61;85.00;100661.34;5078746;28;20036;-76
2021/12/25 09:46:31;;;;;;;10.93;8.85;;;;;;;0.60;85.61;100654.34;5086864;28;20031;-76
2021/12/25 09:48:56;;;;;;;10.45;7.85;;;;;;;0.61;85.64;100656.03;5086628;28;20051;-75
2021/12/25 09:51:22;;;;;;;9.77;8.48;;;;;;;0.60;85.34;100665.00;5075392;28;20451;-76
2021/12/25 09:54:01;;;;;;;12.25;8.43;;;;;;;0.59;84.24;100674.81;5063783;28;20036;-80
2021/12/25 09:56:28;;;;;;;9.88;8.02;;;;;;;0.55;84.33;100670.81;5054461;28;20100;-76
2021/12/25 09:58:54;;;;;;;10.50;8.18;;;;;;;0.53;85.34;100686.97;5054919;28;20029;-76
2021/12/25 10:01:53;;;;;;;10.18;8.60;;;;;;;0.55;85.07;100683.31;5051477;28;20087;-75
2021/12/25 10:04:39;;;;;;;11.98;8.63;;;;;;;0.52;85.01;100690.59;5000494;28;20037;-76
2021/12/25 10:07:19;;;;;;;11.15;8.90;;;;;;;0.57;85.35;100697.28;5054932;28;20082;-76
2021/12/25 10:10:13;;;;;;;9.02;8.07;;;;;;;0.43;84.52;100690.75;5061681;28;20056;-76
2021/12/25 10:12:45;;;;;;;10.63;8.40;;;;;;;0.42;84.55;100700.56;5059528;28;20028;-76
2021/12/25 10:15:17;;;;;;;10.40;8.68;;;;;;;0.41;85.72;100706.03;5077058;28;20028;-78
2021/12/25 10:17:49;;;;;;;11.10;9.10;;;;;;;0.41;84.05;100698.91;5083542;28;20029;-78
2021/12/25 10:20:18;;;;;;;10.60;8.45;;;;;;;0.40;84.62;100697.25;5059402;28;20040;-82
2021/12/25 10:22:52;;;;;;;12.02;9.70;;;;;;;0.53;85.08;100697.59;5074693;28;20032;-74
2021/12/25 10:25:18;;;;;;;11.95;9.10;;;;;;;0.60;85.29;100697.78;5074038;28;20028;-74
2021/12/25 10:27:55;;;;;;;11.55;9.40;;;;;;;0.59;84.61;100696.13;5074182;28;20033;-74
2021/12/25 10:30:21;;;;;;;11.35;9.05;;;;;;;0.59;85.33;100705.94;5074421;28;20058;-75
2021/12/25 10:32:48;;;;;;;10.57;8.52;;;;;;;0.55;84.07;100699.28;5074513;28;20036;-75
2021/12/25 10:35:19;;;;;;;9.23;8.20;;;;;;;0.58;84.23;100698.97;5072981;28;20418;-75
2021/12/25 10:37:46;;;;;;;9.48;7.90;;;;;;;0.61;84.42;100702.13;5074180;28;20449;-76
2021/12/25 10:40:26;;;;;;;10.02;8.43;;;;;;;0.58;83.72;100690.97;5069056;28;20404;-75
2021/12/25 10:42:54;;;;;;;8.80;7.90;;;;;;;0.51;83.19;100690.78;5054549;28;20452;-75
2021/12/25 10:45:20;;;;;;;11.00;8.63;;;;;;;0.47;83.83;100690.28;5054056;28;20487;-74
2021/12/25 10:47:59;;;;;;;9.90;8.00;;;;;;;0.49;83.37;100690.94;5072516;28;20024;-74
2021/12/25 10:50:25;;;;;;;10.05;8.10;;;;;;;0.48;83.33;100702.59;5073395;28;20098;-74
2021/12/25 10:52:51;;;;;;;11.10;8.77;;;;;;;0.46;83.82;100701.91;5074011;28;20464;-74
2021/12/25 10:55:22;;;;;;;8.90;7.70;;;;;;;0.38;83.33;100695.72;5073765;28;20119;-74
2021/12/25 10:57:50;;;;;;;10.27;7.95;;;;;;;0.37;83.37;100689.56;5072791;28;20031;-74
2021/12/25 11:00:21;;;;;;;9.85;7.30;;;;;;;0.45;83.97;100691.44;5067231;28;20068;-74
2021/12/25 11:02:51;;;;;;;9.70;6.97;;;;;;;0.45;83.53;100688.75;5082812;28;20076;-73
2021/12/25 11:05:27;;;;;;;8.73;6.75;;;;;;;0.45;82.87;100697.56;5075787;28;20996;-74
2021/12/25 11:08:12;;;;;;;7.25;6.40;;;;;;;0.39;82.66;100695.56;5072556;28;20033;-74
2021/12/25 11:10:50;;;;;;;7.68;6.78;;;;;;;0.36;82.70;100690.56;5087193;28;20460;-74
2021/12/25 11:13:43;;;;;;;8.93;6.80;;;;;;;0.38;83.70;100688.59;5075835;28;20586;-73
2021/12/25 11:16:12;;;;;;;8.13;6.32;;;;;;;0.33;83.57;100694.41;5072766;28;20072;-72
2021/12/25 11:21:47;;;;;;;9.00;5.78;;;;;;;0.44;82.06;100711.91;5073069;28;20042;-77
2021/12/25 11:24:22;;;;;;;7.72;5.18;;;;;;;0.37;81.51;100702.88;5072004;28;20033;-72
2021/12/25 11:26:49;;;;;;;10.13;6.00;;;;;;;0.34;82.37;100698.72;5072034;28;20086;-73
2021/12/25 11:29:18;;;;;;;7.80;5.63;;;;;;;0.32;82.24;100699.88;5072934;28;20053;-72
2021/12/25 11:31:45;;;;;;;7.85;5.43;;;;;;;0.30;82.29;100692.06;5074550;28;20051;-72
2021/12/25 11:34:11;;;;;;;7.28;5.50;;;;;;;0.34;82.83;100684.56;5072995;28;20078;-76
2021/12/25 11:36:39;;;;;;;7.97;4.60;;;;;;;0.38;83.48;100683.25;5072009;28;20028;-74
2021/12/25 11:39:06;;;;;;;6.45;5.25;;;;;;;0.35;82.20;100679.09;5073158;28;20032;-73
2021/12/25 11:41:33;;;;;;;7.20;5.28;;;;;;;0.40;82.84;100673.28;5073352;28;20112;-76
2021/12/25 11:44:03;;;;;;;6.90;4.90;;;;;;;0.41;82.43;100674.97;5071962;28;20036;-74
2021/12/25 11:46:40;;;;;;;7.78;4.55;;;;;;;0.42;81.98;100673.13;5067850;28;20380;-74
2021/12/25 11:49:09;;;;;;;6.18;4.70;;;;;;;0.40;82.39;100677.78;5086437;28;20043;-75
2021/12/25 11:51:34;;;;;;;8.57;4.40;;;;;;;0.38;81.51;100680.59;5081915;28;20031;-76
2021/12/25 11:56:47;;;;;;;7.07;4.53;;;;;;;0.41;81.34;100690.94;5093180;28;20043;-71
2021/12/25 11:59:16;;;;;;;5.72;4.38;;;;;;;0.50;81.92;100684.63;5092991;28;20081;-72
2021/12/25 12:01:48;;;;;;;7.07;4.55;;;;;;;0.59;81.76;100681.97;5080371;28;20032;-71
2021/12/25 12:04:26;;;;;;;5.90;3.60;;;;;;;0.61;81.14;100677.31;5073813;28;20039;-72
2021/12/25 12:07:03;;;;;;;5.28;3.53;;;;;;;0.57;81.06;100675.97;5072869;28;20060;-72
2021/12/25 12:09:49;;;;;;;6.20;3.80;;;;;;;0.50;80.49;100676.63;5072554;28;20025;-72
2021/12/25 12:12:21;;;;;;;8.35;3.42;;;;;;;0.60;81.63;100684.47;5072456;28;20478;-73
2021/12/25 12:15:08;;;;;;;5.50;3.65;;;;;;;0.69;80.95;100686.16;5072540;28;20471;-74
2021/12/25 12:17:36;;;;;;;4.60;3.20;;;;;;;0.75;81.19;100682.00;5075682;28;20028;-73
2021/12/25 12:20:04;;;;;;;4.05;3.38;;;;;;;0.80;79.90;100681.50;5070645;28;20115;-73
2021/12/25 12:22:55;;;;;;;4.90;3.38;;;;;;;0.85;80.33;100679.19;5072115;28;20460;-74
2021/12/25 12:25:46;;;;;;;5.13;3.60;;;;;;;0.90;80.33;100668.03;5063245;28;20031;-73
2021/12/25 12:28:11;;;;;;;7.03;4.27;;;;;;;0.92;80.12;100658.03;5070646;28;20075;-72
2021/12/25 12:30:45;;;;;;;3.42;3.03;;;;;;;0.98;80.02;100652.03;5072333;28;20045;-73
2021/12/25 12:33:19;;;;;;;3.00;2.70;;;;;;;0.98;79.71;100652.88;5079091;28;20043;-75
2021/12/25 12:35:54;;;;;;;3.33;2.97;;;;;;;1.00;80.10;100653.53;5089428;28;20172;-79
2021/12/25 12:38:48;;;;;;;5.50;3.60;;;;;;;1.05;80.29;100650.38;5088909;28;20044;-75
2021/12/25 12:41:24;;;;;;;4.72;3.00;;;;;;;1.04;79.97;100640.69;5092370;28;20119;-76